Time;durP1;ratioP1;P1;durP2;ratioP2;P2;SDS_P1;SDS_P2;PMS_P1;PMS_P2;Temp;Humidity;BMP_temperature;BMP_pressure;BME280_temperature;BME280_humidity;BME280_pressure;Samples;Min_cycle;Max_cycle;Signal;HPM_P1;HPM_P2
2023/04/18 00:00:55;;;;;;;17.13;14.40;;;;;;;7.99;90.92;102514.75;5050114;28;20500;-82
2023/04/18 00:03:20;;;;;;;;;;;;;;;8.07;89.62;102517.97;5064521;28;20068;-82
2023/04/18 00:05:46;;;;;;;16.63;14.00;;;;;;;7.96;91.09;102509.63;5050430;28;19995;-82
2023/04/18 00:08:18;;;;;;;16.77;14.55;;;;;;;7.95;90.91;102505.31;5054300;28;20044;-82
2023/04/18 00:11:10;;;;;;;17.83;14.68;;;;;;;7.94;90.83;102511.47;5033838;28;20159;-81
2023/04/18 00:13:40;;;;;;;16.23;14.05;;;;;;;7.92;90.89;102512.44;5040750;28;20155;-81
2023/04/18 00:16:07;;;;;;;17.58;15.25;;;;;;;7.88;91.26;102511.69;5035233;28;20060;-81
2023/04/18 00:18:36;;;;;;;17.77;14.32;;;;;;;7.80;91.47;102506.72;5044912;28;20075;-81
2023/04/18 00:21:05;;;;;;;18.92;14.80;;;;;;;7.83;91.28;102503.13;5046116;28;20036;-82
2023/04/18 00:23:36;;;;;;;19.88;15.30;;;;;;;7.78;91.27;102505.91;5048138;28;20021;-82
2023/04/18 00:26:13;;;;;;;20.52;15.00;;;;;;;7.77;91.67;102498.97;5043770;28;20029;-81
2023/04/18 00:28:39;;;;;;;20.08;15.40;;;;;;;7.74;91.50;102503.47;5046378;28;20096;-82
2023/04/18 00:31:04;;;;;;;17.98;14.75;;;;;;;7.72;91.68;102495.66;5064557;28;20120;-83
2023/04/18 00:33:33;;;;;;;17.23;15.32;;;;;;;7.65;92.10;102503.81;5048786;28;20021;-82
2023/04/18 00:36:05;;;;;;;17.08;15.27;;;;;;;7.59;92.34;102498.75;5047822;28;20032;-82
2023/04/18 00:38:34;;;;;;;17.05;15.25;;;;;;;7.57;92.68;102501.44;5037733;28;20021;-82
2023/04/18 00:41:33;;;;;;;20.23;16.40;;;;;;;7.53;93.04;102497.19;5045892;28;20040;-80
2023/04/18 00:44:17;;;;;;;18.40;15.52;;;;;;;7.53;93.19;102500.69;5050131;28;20053;-82
2023/04/18 00:46:45;;;;;;;18.27;15.77;;;;;;;7.49;93.54;102499.06;5048569;28;20044;-82
2023/04/18 00:49:20;;;;;;;19.65;16.33;;;;;;;7.47;93.53;102492.19;5043580;28;20033;-82
2023/04/18 00:51:46;;;;;;;19.13;15.95;;;;;;;7.44;93.39;102484.44;5065716;28;20021;-82
2023/04/18 00:54:12;;;;;;;19.00;15.63;;;;;;;7.46;92.91;102490.47;5024494;28;20038;-81
2023/04/18 00:57:07;;;;;;;22.73;16.00;;;;;;;7.47;91.42;102495.66;5027342;28;20041;-83
2023/04/18 00:59:42;;;;;;;17.75;15.15;;;;;;;7.49;89.67;102488.59;5016908;28;20106;-82
2023/04/18 01:02:08;;;;;;;17.25;14.60;;;;;;;7.49;88.21;102491.22;5027358;28;20021;-82
2023/04/18 01:04:47;;;;;;;15.95;14.18;;;;;;;7.50;87.47;102492.94;5009411;28;20041;-82
2023/04/18 01:07:14;;;;;;;17.20;14.43;;;;;;;7.48;86.70;102488.66;5025642;28;20482;-82
2023/04/18 01:09:48;;;;;;;17.95;14.10;;;;;;;7.50;85.97;102499.94;5026239;28;20114;-82
2023/04/18 01:12:14;;;;;;;15.13;13.52;;;;;;;7.49;84.53;102493.84;5009665;28;20764;-82
2023/04/18 01:14:51;;;;;;;17.23;13.65;;;;;;;7.49;83.70;102496.47;5008375;28;20099;-82
2023/04/18 01:17:21;;;;;;;16.27;13.48;;;;;;;7.51;82.93;102499.03;5024061;28;20037;-82
2023/04/18 01:19:52;;;;;;;16.63;12.82;;;;;;;7.51;81.37;102494.63;5010848;28;20052;-82
2023/04/18 01:22:19;;;;;;;19.85;12.77;;;;;;;7.54;81.64;102493.69;5025865;28;20029;-82
2023/04/18 01:24:44;;;;;;;19.75;13.23;;;;;;;7.53;79.97;102490.19;5033360;28;20045;-82
2023/04/18 01:27:19;;;;;;;16.80;12.63;;;;;;;7.51;80.03;102491.16;5048186;28;20533;-82
2023/04/18 01:29:48;;;;;;;15.55;12.45;;;;;;;7.47;80.36;102489.56;5049340;28;20041;-82
2023/04/18 01:32:22;;;;;;;16.67;13.02;;;;;;;7.42;80.57;102492.34;5044766;28;20108;-81
2023/04/18 01:34:48;;;;;;;16.63;12.95;;;;;;;7.37;80.26;102483.78;5040230;28;20057;-82
2023/04/18 01:37:16;;;;;;;15.63;12.48;;;;;;;7.35;79.83;102477.75;5048715;28;20059;-82
2023/04/18 01:39:41;;;;;;;15.85;12.90;;;;;;;7.27;80.31;102469.31;5060802;28;20040;-82
2023/04/18 01:42:13;;;;;;;16.25;12.70;;;;;;;7.23;80.54;102473.81;5046606;28;20377;-82
2023/04/18 01:44:42;;;;;;;15.70;13.13;;;;;;;7.16;81.24;102469.66;5064620;28;20124;-82
2023/04/18 01:47:07;;;;;;;16.95;13.55;;;;;;;7.12;81.96;102477.66;5063431;28;20037;-82
2023/04/18 01:49:33;;;;;;;17.27;13.27;;;;;;;7.06;82.33;102473.50;5042571;28;20025;-82
2023/04/18 01:51:58;;;;;;;14.48;12.70;;;;;;;7.03;82.71;102475.34;5047364;28;20037;-82
2023/04/18 01:54:24;;;;;;;15.95;13.07;;;;;;;7.01;83.36;102469.31;5046548;28;20060;-82
2023/04/18 01:56:49;;;;;;;15.35;13.02;;;;;;;6.99;83.66;102472.00;5048781;28;20033;-82
2023/04/18 01:59:23;;;;;;;14.98;13.38;;;;;;;6.94;83.92;102462.59;5048319;28;20029;-82
2023/04/18 02:01:51;;;;;;;16.80;13.60;;;;;;;6.90;83.86;102469.69;5048337;28;20032;-82
2023/04/18 02:04:17;;;;;;;17.48;13.85;;;;;;;6.88;83.49;102466.25;5048296;28;20028;-82
2023/04/18 02:06:48;;;;;;;16.77;14.30;;;;;;;6.82;83.97;102472.56;5050844;28;20017;-82
2023/04/18 02:09:14;;;;;;;17.45;13.65;;;;;;;6.81;83.31;102473.47;5048164;28;20436;-82
2023/04/18 02:11:39;;;;;;;17.30;13.75;;;;;;;6.78;83.41;102472.66;5051190;28;20033;-82
2023/04/18 02:14:22;;;;;;;16.48;13.77;;;;;;;6.76;83.61;102470.09;5050344;28;20440;-82
2023/04/18 02:16:48;;;;;;;16.23;13.57;;;;;;;6.71;83.52;102469.41;5044379;28;20025;-82
2023/04/18 02:19:16;;;;;;;15.55;13.23;;;;;;;6.70;83.07;102469.44;5049796;28;20362;-82
2023/04/18 02:21:44;;;;;;;18.38;13.77;;;;;;;6.65;83.89;102466.97;5049738;28;20549;-82
2023/04/18 02:24:13;;;;;;;15.98;13.77;;;;;;;6.64;83.66;102469.66;5050042;28;20490;-82
2023/04/18 02:26:45;;;;;;;15.25;13.45;;;;;;;6.61;83.12;102462.75;5052134;28;20554;-82
2023/04/18 02:29:10;;;;;;;16.42;13.55;;;;;;;6.58;83.19;102465.47;5042214;28;20091;-82
2023/04/18 02:31:45;;;;;;;16.63;13.90;;;;;;;6.55;82.73;102460.34;5041296;28;20033;-82
2023/04/18 02:34:10;;;;;;;15.20;12.85;;;;;;;6.50;83.33;102463.09;5050149;28;20049;-82
2023/04/18 02:36:36;;;;;;;14.52;12.80;;;;;;;6.49;83.50;102460.53;5048475;28;20025;-81
2023/04/18 02:39:01;;;;;;;17.02;13.00;;;;;;;6.46;83.46;102464.09;5049002;28;20064;-82
2023/04/18 02:41:30;;;;;;;17.33;13.00;;;;;;;6.39;83.59;102466.91;5046721;28;20060;-82
2023/04/18 02:43:58;;;;;;;17.08;13.70;;;;;;;6.37;83.94;102460.88;5047725;28;20450;-82
2023/04/18 02:46:23;;;;;;;17.38;13.27;;;;;;;6.33;84.10;102465.34;5048160;28;20025;-82
2023/04/18 02:48:52;;;;;;;14.55;13.00;;;;;;;6.31;84.61;102466.31;5051791;28;20078;-82
2023/04/18 02:51:20;;;;;;;16.40;13.63;;;;;;;6.24;84.50;102466.50;5049477;28;20040;-82
2023/04/18 02:53:46;;;;;;;16.70;13.48;;;;;;;6.21;84.77;102466.59;5050678;28;20025;-81
2023/04/18 02:56:15;;;;;;;16.13;13.20;;;;;;;6.13;85.32;102463.34;5066179;28;20036;-82
2023/04/18 02:58:44;;;;;;;18.92;13.32;;;;;;;6.14;85.06;102464.22;5046853;28;20059;-82
2023/04/18 03:01:12;;;;;;;18.00;13.90;;;;;;;6.06;85.58;102467.06;5033810;28;20083;-81
2023/04/18 03:03:41;;;;;;;17.27;14.07;;;;;;;6.03;85.78;102456.69;5041729;28;20028;-82
2023/04/18 03:06:06;;;;;;;18.58;14.55;;;;;;;5.98;85.81;102458.56;5049987;28;20032;-82
2023/04/18 03:08:34;;;;;;;17.92;14.23;;;;;;;5.94;85.85;102463.00;5037344;28;20128;-82
2023/04/18 03:11:23;;;;;;;14.90;13.27;;;;;;;5.95;85.60;102461.25;5043399;28;20107;-82
2023/04/18 03:13:51;;;;;;;15.05;13.40;;;;;;;5.89;85.65;102461.41;5046376;28;20519;-82
2023/04/18 03:16:22;;;;;;;18.13;13.82;;;;;;;5.83;86.04;102458.97;5041626;28;20036;-82
2023/04/18 03:18:48;;;;;;;16.10;13.73;;;;;;;5.78;85.83;102455.63;5045341;28;20021;-82
2023/04/18 03:21:13;;;;;;;15.52;13.88;;;;;;;5.74;86.51;102464.47;5048538;28;20052;-82
2023/04/18 03:23:42;;;;;;;16.25;14.50;;;;;;;5.71;85.85;102469.78;5052400;28;20103;-82
2023/04/18 03:26:08;;;;;;;20.80;14.63;;;;;;;5.65;86.38;102463.81;5047529;28;20104;-81
2023/04/18 03:28:34;;;;;;;16.25;14.55;;;;;;;5.60;86.20;102459.59;5048363;28;20112;-81
2023/04/18 03:31:10;;;;;;;15.90;14.20;;;;;;;5.57;86.33;102468.38;5050368;28;20035;-81
2023/04/18 03:33:35;;;;;;;18.38;14.52;;;;;;;5.50;86.60;102466.81;5043984;28;20105;-81
2023/04/18 03:36:04;;;;;;;16.45;14.10;;;;;;;5.46;86.62;102470.41;5041649;28;20136;-81
2023/04/18 03:38:30;;;;;;;17.85;13.90;;;;;;;5.43;86.59;102467.88;5050328;28;20025;-81
2023/04/18 03:41:08;;;;;;;17.13;14.00;;;;;;;5.43;86.52;102474.88;5066793;28;20083;-81
2023/04/18 03:43:36;;;;;;;18.15;14.40;;;;;;;5.34;86.02;102469.00;5047409;28;20078;-81
2023/04/18 03:46:02;;;;;;;15.02;13.43;;;;;;;5.36;86.61;102463.72;5049250;28;20032;-81
2023/04/18 03:48:28;;;;;;;18.52;13.85;;;;;;;5.32;86.60;102468.19;5049158;28;20378;-81
2023/04/18 03:50:57;;;;;;;17.13;13.93;;;;;;;5.30;86.62;102461.28;5048689;28;20029;-81
2023/04/18 03:53:28;;;;;;;15.40;13.45;;;;;;;5.24;87.38;102464.06;5050693;28;20017;-81
2023/04/18 03:55:57;;;;;;;16.52;14.40;;;;;;;5.26;87.03;102470.94;5048492;28;20401;-81
2023/04/18 03:58:29;;;;;;;18.42;14.68;;;;;;;5.24;87.08;102470.13;5063745;28;20051;-81
2023/04/18 04:00:54;;;;;;;16.50;13.80;;;;;;;5.20;87.05;102470.22;5049498;28;20381;-81
2023/04/18 04:03:23;;;;;;;16.67;14.38;;;;;;;5.14;87.53;102479.06;5049819;28;20025;-81
2023/04/18 04:05:49;;;;;;;16.13;13.88;;;;;;;5.13;87.35;102472.13;5047974;28;20553;-81
2023/04/18 04:08:17;;;;;;;15.07;13.45;;;;;;;5.12;87.79;102469.56;5041862;28;20474;-82
2023/04/18 04:10:49;;;;;;;17.02;13.68;;;;;;;5.12;87.75;102469.56;5029393;28;20068;-81
2023/04/18 04:13:20;;;;;;;17.42;14.43;;;;;;;5.10;87.64;102471.38;5029489;28;20025;-82
2023/04/18 04:15:49;;;;;;;16.48;12.98;;;;;;;5.08;87.33;102468.78;5040634;28;20108;-82
2023/04/18 04:18:24;;;;;;;16.77;13.93;;;;;;;5.06;87.70;102467.13;5035597;28;20106;-82
2023/04/18 04:20:52;;;;;;;17.05;13.57;;;;;;;5.00;87.72;102474.22;5048401;28;20081;-82
2023/04/18 04:23:17;;;;;;;16.38;13.85;;;;;;;5.00;88.15;102479.44;5048640;28;20028;-82
2023/04/18 04:25:45;;;;;;;20.13;14.55;;;;;;;4.99;88.18;102476.84;5049987;28;20365;-82
2023/04/18 04:28:12;;;;;;;15.25;13.65;;;;;;;4.92;88.14;102481.38;5044027;28;20389;-81
2023/04/18 04:30:40;;;;;;;15.38;13.77;;;;;;;4.93;88.38;102485.69;5038666;28;20424;-82
2023/04/18 04:33:12;;;;;;;20.52;13.88;;;;;;;4.93;88.42;102477.00;5044806;28;20037;-82
2023/04/18 04:35:37;;;;;;;15.90;13.47;;;;;;;4.92;88.46;102470.94;5028614;28;20435;-82
2023/04/18 04:38:07;;;;;;;19.30;14.02;;;;;;;4.90;88.75;102483.16;5058874;28;20068;-82
2023/04/18 04:40:35;;;;;;;20.35;13.55;;;;;;;4.86;88.71;102483.28;5058820;28;20029;-82
2023/04/18 04:43:04;;;;;;;15.60;13.48;;;;;;;4.83;89.07;102488.56;5048691;28;20033;-82
2023/04/18 04:45:40;;;;;;;14.80;13.30;;;;;;;4.83;88.86;102488.56;5048273;28;20021;-82
2023/04/18 04:48:12;;;;;;;15.00;13.50;;;;;;;4.82;89.17;102489.44;5061007;28;20365;-82
2023/04/18 04:50:40;;;;;;;15.57;13.63;;;;;;;4.80;89.13;102486.00;5049998;28;20485;-81
2023/04/18 04:53:10;;;;;;;14.90;13.40;;;;;;;4.77;88.74;102484.31;5048989;28;20082;-82
2023/04/18 04:55:37;;;;;;;16.02;14.32;;;;;;;4.75;89.31;102491.31;5063212;28;20041;-82
2023/04/18 04:58:08;;;;;;;15.48;13.82;;;;;;;4.73;89.54;102482.69;5048407;28;20070;-82
2023/04/18 05:00:34;;;;;;;15.20;13.60;;;;;;;4.73;89.11;102483.53;5040201;28;20111;-82
2023/04/18 05:03:11;;;;;;;15.70;13.23;;;;;;;4.75;88.89;102490.47;5043907;28;20033;-82
2023/04/18 05:05:40;;;;;;;16.15;13.68;;;;;;;4.69;89.05;102491.47;5029455;28;20455;-81
2023/04/18 05:08:05;;;;;;;15.15;13.27;;;;;;;4.72;89.29;102494.00;5040696;28;20063;-82
2023/04/18 05:10:35;;;;;;;15.68;14.02;;;;;;;4.69;89.27;102491.47;5047341;28;20082;-82
2023/04/18 05:13:07;;;;;;;15.13;13.52;;;;;;;4.74;89.43;102489.59;5062728;28;20458;-81
2023/04/18 05:15:36;;;;;;;15.00;13.37;;;;;;;4.72;89.28;102486.19;5046235;28;20079;-82
2023/04/18 05:18:07;;;;;;;17.08;13.70;;;;;;;4.76;89.24;102493.03;5044945;28;20037;-82
2023/04/18 05:20:33;;;;;;;16.13;13.93;;;;;;;4.72;88.76;102486.19;5048005;28;20016;-81
2023/04/18 05:23:05;;;;;;;16.15;13.15;;;;;;;4.72;89.12;102500.06;5047908;28;20066;-82
2023/04/18 05:25:32;;;;;;;17.02;14.23;;;;;;;4.70;88.63;102498.41;5048759;28;20476;-82
2023/04/18 05:28:07;;;;;;;16.08;13.50;;;;;;;4.72;88.94;102502.69;5049365;28;20012;-81
2023/04/18 05:30:35;;;;;;;16.80;13.98;;;;;;;4.76;88.99;102498.25;5035863;28;20178;-83
2023/04/18 05:33:13;;;;;;;18.83;13.52;;;;;;;4.78;88.15;102493.84;5029981;28;20108;-83
2023/04/18 05:35:38;;;;;;;17.23;14.15;;;;;;;4.82;88.28;102508.56;5035766;28;20041;-82
2023/04/18 05:38:18;;;;;;;19.20;14.57;;;;;;;4.85;88.22;102516.31;5044727;28;20029;-83
2023/04/18 05:40:51;;;;;;;16.40;13.55;;;;;;;4.88;88.10;102513.63;5028332;28;20513;-82
2023/04/18 05:43:32;;;;;;;17.52;13.73;;;;;;;4.90;87.45;102517.06;5042656;28;20542;-82
2023/04/18 05:46:04;;;;;;;15.93;13.32;;;;;;;4.99;88.26;102521.19;5028536;28;20025;-82
2023/04/18 05:48:30;;;;;;;17.77;13.70;;;;;;;5.05;87.93;102518.44;5040945;28;20095;-82
2023/04/18 05:50:57;;;;;;;16.55;13.98;;;;;;;5.11;87.34;102515.66;5047474;28;20123;-82
2023/04/18 05:53:23;;;;;;;15.48;12.88;;;;;;;5.22;87.67;102521.50;5047347;28;20124;-82
2023/04/18 05:56:13;;;;;;;14.63;12.85;;;;;;;5.31;86.70;102520.41;5047829;28;20111;-83
2023/04/18 05:58:46;;;;;;;14.80;12.40;;;;;;;5.37;86.74;102522.88;5049009;28;20017;-82
2023/04/18 06:01:13;;;;;;;15.82;12.88;;;;;;;5.46;86.95;102533.06;5036316;28;20442;-82
2023/04/18 06:03:50;;;;;;;14.88;13.38;;;;;;;5.49;86.55;102530.38;5040068;28;20128;-82
2023/04/18 06:06:19;;;;;;;15.60;13.45;;;;;;;5.55;86.03;102522.38;5027897;28;20056;-82
2023/04/18 06:09:05;;;;;;;15.70;13.18;;;;;;;5.63;85.31;102530.03;5037107;28;20045;-82
2023/04/18 06:11:34;;;;;;;13.82;12.23;;;;;;;5.69;85.79;102519.44;5048676;28;20040;-82
2023/04/18 06:14:12;;;;;;;17.25;15.45;;;;;;;5.80;86.12;102525.22;5047453;28;20025;-82
2023/04/18 06:16:40;;;;;;;14.90;13.38;;;;;;;5.89;84.64;102531.94;5048274;28;20033;-82
2023/04/18 06:19:08;;;;;;;15.77;12.50;;;;;;;5.95;84.46;102534.41;5048467;28;20071;-82
2023/04/18 06:21:33;;;;;;;15.45;12.60;;;;;;;5.98;84.59;102529.09;5047424;28;20060;-82
2023/04/18 06:24:19;;;;;;;15.32;12.73;;;;;;;6.01;84.60;102529.03;5047556;28;20025;-82
2023/04/18 06:26:50;;;;;;;15.48;12.70;;;;;;;6.02;84.83;102535.97;5046240;28;20094;-82
2023/04/18 06:29:19;;;;;;;16.05;13.13;;;;;;;6.03;84.76;102535.06;5048505;28;20032;-82
2023/04/18 06:31:54;;;;;;;14.27;12.75;;;;;;;6.03;85.06;102534.22;5047220;28;20509;-82
2023/04/18 06:34:27;;;;;;;16.90;12.73;;;;;;;6.07;85.20;102546.28;5044828;28;20044;-82
2023/04/18 06:36:57;;;;;;;16.52;13.25;;;;;;;6.13;85.00;102538.28;5048282;28;20048;-81
2023/04/18 06:39:31;;;;;;;15.10;13.00;;;;;;;6.24;85.62;102538.81;5044369;28;20713;-82
2023/04/18 06:42:08;;;;;;;19.98;13.38;;;;;;;6.29;84.89;102537.78;5042654;28;20072;-82
2023/04/18 06:44:35;;;;;;;14.55;12.50;;;;;;;6.40;84.85;102544.44;5057509;28;20061;-82
2023/04/18 06:47:06;;;;;;;17.38;13.15;;;;;;;6.50;85.33;102538.06;5028521;28;20032;-82
2023/04/18 06:49:51;;;;;;;16.40;12.70;;;;;;;6.56;85.00;102549.19;5044734;28;20508;-82
2023/04/18 06:52:17;;;;;;;14.15;12.57;;;;;;;6.60;84.88;102537.75;5029340;28;20116;-82
2023/04/18 06:54:43;;;;;;;16.02;13.27;;;;;;;6.72;84.77;102546.97;5049901;28;20052;-82
2023/04/18 06:57:17;;;;;;;16.40;12.55;;;;;;;6.79;84.49;102543.25;5038870;28;20095;-81
2023/04/18 06:59:43;;;;;;;14.93;13.00;;;;;;;6.86;84.28;102541.34;5039717;28;20042;-83
2023/04/18 07:02:18;;;;;;;15.70;12.40;;;;;;;6.96;84.13;102560.22;5048847;28;20428;-82
2023/04/18 07:04:43;;;;;;;14.43;12.57;;;;;;;7.01;84.24;102548.69;5047135;28;20397;-82
2023/04/18 07:07:09;;;;;;;14.20;12.70;;;;;;;7.08;83.79;102546.72;5047544;28;20039;-82
2023/04/18 07:09:34;;;;;;;14.25;12.60;;;;;;;7.16;83.69;102552.56;5064800;28;20150;-81
2023/04/18 07:12:00;;;;;;;15.18;12.55;;;;;;;7.22;83.21;102555.00;5048252;28;20025;-81
2023/04/18 07:14:26;;;;;;;17.38;12.68;;;;;;;7.30;83.42;102550.38;5052020;28;20027;-80
2023/04/18 07:16:56;;;;;;;13.57;12.07;;;;;;;7.24;82.62;102555.81;5052679;28;20029;-83
2023/04/18 07:19:30;;;;;;;14.63;12.60;;;;;;;7.24;83.22;102555.81;5050718;28;20389;-82
2023/04/18 07:22:22;;;;;;;14.68;13.07;;;;;;;7.26;83.56;102554.00;5065472;28;20033;-81
2023/04/18 07:24:51;;;;;;;13.20;11.90;;;;;;;7.26;83.83;102559.22;5047213;28;20039;-81
2023/04/18 07:27:19;;;;;;;13.23;11.82;;;;;;;7.26;83.26;102554.00;5047291;28;20048;-81
2023/04/18 07:29:48;;;;;;;14.13;12.40;;;;;;;7.32;83.61;102558.19;5064091;28;20087;-81
2023/04/18 07:32:25;;;;;;;16.48;12.50;;;;;;;7.44;83.48;102563.00;5048918;28;20068;-81
2023/04/18 07:35:15;;;;;;;13.57;12.18;;;;;;;7.54;82.81;102567.88;5063811;28;20128;-81
2023/04/18 07:37:40;;;;;;;13.70;12.30;;;;;;;7.58;82.43;102566.00;5042897;28;20046;-81
2023/04/18 07:40:10;;;;;;;13.90;12.05;;;;;;;7.60;82.46;102569.41;5045309;28;20095;-81
2023/04/18 07:42:35;;;;;;;14.52;11.43;;;;;;;7.70;82.47;102567.38;5061418;28;20581;-81
2023/04/18 07:45:10;;;;;;;13.80;11.80;;;;;;;7.85;82.27;102564.22;5031249;28;20100;-81
2023/04/18 07:47:35;;;;;;;13.13;11.73;;;;;;;7.86;81.41;102565.91;5034681;28;20035;-80
2023/04/18 07:50:02;;;;;;;13.23;11.40;;;;;;;7.85;81.53;102575.53;5050681;28;20025;-79
2023/04/18 07:52:30;;;;;;;12.98;11.68;;;;;;;7.90;81.26;102564.03;5041870;28;20040;-79
2023/04/18 07:54:55;;;;;;;12.27;11.00;;;;;;;8.09;81.30;102565.13;5040886;28;20036;-79
2023/04/18 07:57:21;;;;;;;12.77;11.20;;;;;;;8.33;80.17;102571.22;5062905;28;20029;-81
2023/04/18 07:59:46;;;;;;;12.90;11.27;;;;;;;8.55;79.55;102571.31;5047976;28;20025;-81
2023/04/18 08:02:15;;;;;;;11.98;10.75;;;;;;;8.70;77.67;102571.56;5048092;28;20539;-80
2023/04/18 08:07:35;;;;;;;11.32;10.18;;;;;;;8.91;77.73;102579.56;5016738;28;20029;-79
2023/04/18 08:10:08;;;;;;;12.90;11.60;;;;;;;8.97;77.30;102584.56;5050469;28;20112;-80
2023/04/18 08:12:35;;;;;;;11.60;10.32;;;;;;;8.96;77.26;102582.84;5050966;28;20078;-80
2023/04/18 08:15:00;;;;;;;11.07;10.00;;;;;;;9.04;76.97;102586.00;5050857;28;20071;-79
2023/04/18 08:17:26;;;;;;;13.57;12.15;;;;;;;9.06;76.77;102578.94;5046686;28;20119;-80
2023/04/18 08:19:54;;;;;;;13.20;11.55;;;;;;;8.98;77.24;102592.38;5051112;28;20682;-79
2023/04/18 08:22:20;;;;;;;16.08;13.75;;;;;;;8.92;77.13;102581.25;5048109;28;20548;-80
2023/04/18 08:24:48;;;;;;;12.57;11.35;;;;;;;8.91;77.63;102587.44;5049762;28;20037;-79
2023/04/18 08:27:16;;;;;;;12.05;10.57;;;;;;;8.92;77.75;102586.50;5050326;28;20504;-79
2023/04/18 08:29:42;;;;;;;12.48;11.23;;;;;;;8.82;77.39;102586.03;5046520;28;20393;-80
2023/04/18 08:32:07;;;;;;;14.32;12.80;;;;;;;8.76;77.89;102581.84;5046410;28;20025;-79
2023/04/18 08:34:36;;;;;;;12.88;11.25;;;;;;;8.71;77.98;102594.28;5045651;28;20117;-80
2023/04/18 08:37:11;;;;;;;12.13;10.82;;;;;;;8.76;78.55;102584.47;5049121;28;20045;-80
2023/04/18 08:39:36;;;;;;;11.73;10.60;;;;;;;8.78;77.97;102585.25;5048562;28;20118;-79
2023/04/18 08:42:18;;;;;;;13.23;11.73;;;;;;;8.91;78.97;102587.44;5037837;28;20502;-80
2023/04/18 08:44:46;;;;;;;11.77;10.57;;;;;;;8.97;78.75;102585.41;5060578;28;20160;-79
2023/04/18 08:47:25;;;;;;;11.93;10.80;;;;;;;9.08;78.58;102582.34;5061144;28;20025;-79
2023/04/18 08:49:57;;;;;;;11.98;10.88;;;;;;;9.20;77.93;102587.09;5044529;28;20557;-79
2023/04/18 08:52:33;;;;;;;12.37;11.17;;;;;;;9.14;77.42;102587.34;5035660;28;20036;-81
2023/04/18 08:55:06;;;;;;;11.50;10.40;;;;;;;9.06;77.62;102578.94;5048177;28;20028;-79
2023/04/18 08:57:35;;;;;;;12.07;10.82;;;;;;;9.09;78.37;102579.66;5044783;28;20099;-79
2023/04/18 09:00:10;;;;;;;12.60;11.40;;;;;;;9.17;78.56;102579.34;5049874;28;20107;-79
2023/04/18 09:02:57;;;;;;;13.43;12.13;;;;;;;9.37;78.22;102566.28;5037268;28;20037;-79
2023/04/18 09:05:26;;;;;;;13.15;10.60;;;;;;;9.69;77.47;102564.06;5046654;28;20115;-81
2023/04/18 09:07:58;;;;;;;20.90;10.65;;;;;;;10.17;75.78;102557.59;5043660;28;20398;-79
2023/04/18 09:10:49;;;;;;;12.10;10.83;;;;;;;10.46;74.36;102562.44;5036486;28;20619;-80
2023/04/18 09:13:54;;;;;;;12.05;10.85;;;;;;;10.48;73.87;102562.34;5043223;28;20039;-80
2023/04/18 09:16:24;;;;;;;13.18;10.77;;;;;;;10.46;73.41;102554.53;5049888;28;20532;-80
2023/04/18 09:19:32;;;;;;;13.13;10.55;;;;;;;10.71;72.67;102556.84;5006799;28;20052;-80
2023/04/18 09:22:00;;;;;;;13.00;11.50;;;;;;;10.70;71.21;102556.94;5008106;28;20030;-80
2023/04/18 09:24:30;;;;;;;12.07;10.90;;;;;;;10.94;72.67;102551.38;5007033;28;20026;-79
2023/04/18 09:27:14;;;;;;;11.68;10.35;;;;;;;11.04;67.77;102557.03;5006700;28;20045;-81
2023/04/18 09:30:27;;;;;;;12.05;10.07;;;;;;;10.87;67.41;102557.00;4990697;28;20034;-84
2023/04/18 09:33:07;;;;;;;12.27;10.98;;;;;;;10.63;68.97;102557.22;5005277;28;20050;-80
2023/04/18 09:35:37;;;;;;;11.43;10.13;;;;;;;10.60;69.18;102557.38;4971785;28;20117;-79
2023/04/18 09:38:11;;;;;;;10.82;9.82;;;;;;;10.64;69.14;102555.44;5005365;28;20057;-80
2023/04/18 09:40:36;;;;;;;10.93;9.82;;;;;;;10.56;68.49;102558.44;4990093;28;20036;-80
2023/04/18 09:43:21;;;;;;;10.38;9.30;;;;;;;10.74;68.58;102550.59;4989619;28;20030;-80
2023/04/18 09:45:53;;;;;;;10.45;9.15;;;;;;;10.64;67.53;102545.78;4991002;28;20172;-83
2023/04/18 09:48:28;;;;;;;13.00;9.63;;;;;;;10.63;68.25;102536.16;4981838;28;20053;-86
2023/04/18 09:51:23;;;;;;;11.13;10.02;;;;;;;10.71;69.53;102550.75;5042668;28;20045;-83
2023/04/18 09:53:52;;;;;;;10.32;9.32;;;;;;;10.66;68.46;102541.28;5036310;28;20083;-80
2023/04/18 09:56:31;;;;;;;13.85;8.90;;;;;;;10.91;68.63;102540.13;5040804;28;20473;-80
2023/04/18 09:59:54;;;;;;;10.55;9.20;;;;;;;11.08;67.40;102540.16;5036203;28;20024;-81
2023/04/18 10:02:21;;;;;;;;;;;;;;;11.24;66.51;102538.47;5004763;28;20457;-81
2023/04/18 10:04:53;;;;;;;9.13;8.23;;;;;;;11.44;65.14;102539.25;4988571;28;20451;-80
2023/04/18 10:07:32;;;;;;;9.82;8.88;;;;;;;11.77;65.25;102534.91;5006346;28;20159;-80
2023/04/18 10:10:10;;;;;;;17.27;8.07;;;;;;;11.78;62.64;102531.38;5007818;28;20552;-81
2023/04/18 10:12:46;;;;;;;8.55;7.70;;;;;;;11.66;63.59;102537.25;5035524;28;20042;-80
2023/04/18 10:15:36;;;;;;;8.85;7.15;;;;;;;11.39;63.48;102542.13;5045622;28;20125;-80
2023/04/18 10:18:15;;;;;;;9.63;7.10;;;;;;;11.27;64.82;102545.38;5030731;28;20037;-82
2023/04/18 10:20:45;;;;;;;8.10;7.30;;;;;;;11.11;64.86;102539.16;5040204;28;20045;-80
2023/04/18 10:23:33;;;;;;;9.20;7.70;;;;;;;11.09;65.94;102541.84;5037915;28;20508;-80
2023/04/18 10:26:07;;;;;;;8.15;6.88;;;;;;;10.96;64.56;102544.25;5050720;28;20035;-81
2023/04/18 10:29:04;;;;;;;6.88;6.22;;;;;;;10.88;64.96;102548.19;5050676;28;20033;-80
2023/04/18 10:31:47;;;;;;;7.22;6.38;;;;;;;10.82;65.12;102554.59;5042512;28;20021;-80
2023/04/18 10:34:16;;;;;;;6.30;5.78;;;;;;;10.67;64.69;102545.63;5049340;28;20036;-81
2023/04/18 10:37:11;;;;;;;5.70;5.20;;;;;;;10.62;65.46;102547.63;5050260;28;20049;-80
2023/04/18 10:40:06;;;;;;;6.30;5.70;;;;;;;10.65;64.98;102551.88;5067323;28;20017;-79
2023/04/18 10:42:46;;;;;;;7.22;6.32;;;;;;;10.73;64.92;102559.41;5052600;28;20366;-82
2023/04/18 10:45:35;;;;;;;8.48;6.55;;;;;;;10.77;64.63;102547.81;5050245;28;20466;-82
2023/04/18 10:48:29;;;;;;;6.43;5.90;;;;;;;10.99;63.89;102559.03;5048431;28;20090;-81
2023/04/18 10:51:25;;;;;;;6.78;6.07;;;;;;;11.07;63.55;102546.34;5061324;28;20036;-81
2023/04/18 10:53:57;;;;;;;7.30;6.18;;;;;;;10.97;64.21;102542.47;5052232;28;20048;-80
2023/04/18 10:56:30;;;;;;;9.27;6.05;;;;;;;10.99;64.03;102545.88;5048370;28;20032;-80
2023/04/18 10:59:10;;;;;;;6.75;6.05;;;;;;;11.05;64.72;102553.47;5050804;28;20496;-81
2023/04/18 11:01:40;;;;;;;8.07;7.20;;;;;;;11.02;64.52;102545.72;5050900;28;20469;-81
2023/04/18 11:04:15;;;;;;;7.50;6.45;;;;;;;11.02;64.90;102548.34;5037840;28;20071;-81
2023/04/18 11:09:54;;;;;;;7.88;7.07;;;;;;;10.79;64.30;102543.31;5051677;28;20037;-81
2023/04/18 11:12:26;;;;;;;7.78;6.95;;;;;;;10.73;64.78;102544.47;5024438;28;20152;-81
2023/04/18 11:14:54;;;;;;;8.13;7.38;;;;;;;10.74;66.17;102550.59;5047274;28;20040;-81
2023/04/18 11:17:22;;;;;;;8.77;7.43;;;;;;;10.83;66.09;102544.91;5049099;28;20035;-80
2023/04/18 11:20:18;;;;;;;8.57;6.95;;;;;;;10.87;66.32;102541.22;5046818;28;20504;-81
2023/04/18 11:22:53;;;;;;;8.23;7.43;;;;;;;10.85;66.26;102543.91;5052242;28;20040;-80
2023/04/18 11:25:39;;;;;;;8.93;7.78;;;;;;;10.97;67.30;102539.81;5047752;28;20370;-81
2023/04/18 11:29:10;;;;;;;;;;;;;;;;;;;;;
2023/04/18 11:31:36;;;;;;;9.73;8.73;;;;;;;10.95;66.34;102532.00;5025634;28;20059;-81
2023/04/18 11:34:07;;;;;;;9.55;8.65;;;;;;;10.88;66.80;102542.91;5048839;28;20458;-81
2023/04/18 11:36:55;;;;;;;12.48;8.70;;;;;;;10.78;67.49;102531.94;5044606;28;20125;-82
2023/04/18 11:39:26;;;;;;;11.88;9.00;;;;;;;10.78;67.38;102541.63;5038207;28;20021;-81
2023/04/18 11:41:58;;;;;;;12.07;10.25;;;;;;;10.83;67.03;102534.38;5050303;28;20025;-80
2023/04/18 11:44:24;;;;;;;38.35;15.25;;;;;;;10.78;67.56;102531.09;5060932;28;20036;-80
2023/04/18 11:46:52;;;;;;;12.77;10.95;;;;;;;10.82;67.92;102540.56;5067625;28;20029;-80
2023/04/18 11:49:28;;;;;;;11.63;10.43;;;;;;;10.88;68.55;102553.44;5046919;28;20036;-81